Time;durP1;ratioP1;P1;durP2;ratioP2;P2;SDS_P1;SDS_P2;PMS_P1;PMS_P2;Temp;Humidity;BMP_temperature;BMP_pressure;BME280_temperature;BME280_humidity;BME280_pressure;Samples;Min_cycle;Max_cycle;Signal;HPM_P1;HPM_P2
2021/10/18 00:00:15;;;;;;;1.90;1.52;;;;;;;26.19;35.65;97171.47;5050659;28;20035;-29
2021/10/18 00:02:41;;;;;;;2.75;1.67;;;;;;;26.19;35.60;97176.72;5081338;28;20053;-29
2021/10/18 00:05:07;;;;;;;2.33;1.73;;;;;;;26.19;35.57;97171.47;5069997;28;20110;-28
2021/10/18 00:07:32;;;;;;;2.40;1.65;;;;;;;26.17;35.62;97176.81;5080056;28;20023;-31
2021/10/18 00:09:58;;;;;;;3.08;1.67;;;;;;;26.15;35.73;97175.16;5084217;28;20677;-27
2021/10/18 00:12:23;;;;;;;2.97;1.95;;;;;;;26.18;35.70;97190.78;5064917;28;20031;-29
2021/10/18 00:14:48;;;;;;;1.38;1.15;;;;;;;26.19;35.52;97195.09;5085575;28;20032;-29
2021/10/18 00:17:14;;;;;;;2.10;1.52;;;;;;;26.18;35.66;97201.28;5078004;28;20031;-31
2021/10/18 00:19:39;;;;;;;2.22;1.70;;;;;;;26.17;35.58;97194.34;5084154;28;20032;-29
2021/10/18 00:22:05;;;;;;;1.83;1.40;;;;;;;26.18;35.66;97185.53;5086330;27;20042;-29
2021/10/18 00:24:30;;;;;;;4.05;1.77;;;;;;;26.17;35.65;97196.97;5081019;28;20028;-28
2021/10/18 00:26:55;;;;;;;2.30;1.58;;;;;;;26.17;35.43;97203.09;5080897;28;20781;-29
2021/10/18 00:29:21;;;;;;;2.47;1.67;;;;;;;26.18;35.79;97203.91;5068785;28;20020;-29
2021/10/18 00:31:46;;;;;;;3.45;1.83;;;;;;;26.17;35.56;97195.19;5085760;28;20092;-29
2021/10/18 00:34:12;;;;;;;2.60;1.52;;;;;;;26.18;35.63;97198.66;5084124;28;20028;-30
2021/10/18 00:36:37;;;;;;;4.50;1.50;;;;;;;26.18;35.57;97196.03;5079684;28;20110;-28
2021/10/18 00:39:03;;;;;;;1.88;1.55;;;;;;;26.17;35.48;97199.59;5081654;28;20327;-29
2021/10/18 00:41:28;;;;;;;2.35;1.60;;;;;;;26.17;35.48;97194.34;5079724;28;20688;-28
2021/10/18 00:43:55;;;;;;;2.13;1.40;;;;;;;26.16;35.55;97187.41;5079924;27;20023;-31
2021/10/18 00:46:22;;;;;;;1.70;1.50;;;;;;;26.17;35.64;97199.59;5082065;28;20573;-26
2021/10/18 00:48:49;;;;;;;2.58;1.65;;;;;;;26.17;35.66;97194.34;5059970;28;20030;-31
2021/10/18 00:51:15;;;;;;;2.42;1.65;;;;;;;26.16;35.49;97195.28;5097963;27;20132;-29
2021/10/18 00:53:40;;;;;;;2.17;1.55;;;;;;;26.16;35.65;97190.03;5066835;28;20055;-30
2021/10/18 00:56:05;;;;;;;2.05;1.63;;;;;;;26.16;35.62;97190.03;5057031;28;20036;-29
2021/10/18 00:58:31;;;;;;;3.08;1.52;;;;;;;26.16;35.57;97197.91;5083247;28;20035;-28
2021/10/18 01:00:57;;;;;;;3.03;1.50;;;;;;;26.16;35.58;97208.41;5070448;28;20117;-28
2021/10/18 01:03:22;;;;;;;2.35;1.70;;;;;;;26.14;35.66;97208.47;5070659;28;20031;-28
2021/10/18 01:05:47;;;;;;;2.83;1.90;;;;;;;26.15;35.69;97222.44;5053372;28;20059;-31
2021/10/18 01:08:14;;;;;;;1.60;1.48;;;;;;;26.16;35.56;97211.03;5070632;28;20036;-29
2021/10/18 01:10:40;;;;;;;1.88;1.45;;;;;;;26.14;35.71;97211.09;5076012;28;20773;-29
2021/10/18 01:13:05;;;;;;;2.85;1.73;;;;;;;26.15;35.58;97201.44;5080260;28;21090;-28
2021/10/18 01:15:31;;;;;;;2.08;1.50;;;;;;;26.15;35.58;97201.44;5056976;28;20538;-29
2021/10/18 01:17:56;;;;;;;3.45;1.33;;;;;;;26.15;35.66;97204.06;5073347;28;20036;-27
2021/10/18 01:20:31;;;;;;;2.65;1.80;;;;;;;26.14;35.60;97208.47;5062746;28;20449;-33
2021/10/18 01:22:57;;;;;;;3.75;1.73;;;;;;;26.15;35.69;97211.94;5069882;28;20092;-30
2021/10/18 01:25:23;;;;;;;1.60;1.45;;;;;;;26.11;35.63;97206.00;5072881;28;20031;-28
2021/10/18 01:27:48;;;;;;;2.72;1.75;;;;;;;26.14;35.70;97210.25;5073774;28;20443;-31
2021/10/18 01:30:14;;;;;;;1.50;1.40;;;;;;;26.15;35.61;97209.31;5075226;28;20034;-32
2021/10/18 01:32:39;;;;;;;1.70;1.45;;;;;;;26.13;35.75;97205.91;5075725;28;20038;-27
2021/10/18 01:35:07;;;;;;;1.52;1.20;;;;;;;26.13;35.57;97205.91;5073758;28;20027;-28
2021/10/18 01:37:33;;;;;;;2.80;1.77;;;;;;;26.13;35.54;97203.28;5067205;28;20537;-27
2021/10/18 01:39:58;;;;;;;2.15;1.50;;;;;;;26.13;35.65;97198.03;5053911;28;20024;-27
2021/10/18 01:42:24;;;;;;;1.85;1.50;;;;;;;26.10;35.60;97193.78;5070314;28;20036;-29
2021/10/18 01:44:49;;;;;;;3.00;1.45;;;;;;;26.13;35.68;97195.41;5069546;28;20034;-29
2021/10/18 01:47:15;;;;;;;1.70;1.30;;;;;;;26.13;35.58;97192.78;5067401;28;20086;-28
2021/10/18 01:49:40;;;;;;;1.98;1.50;;;;;;;26.13;35.53;97198.03;5070478;28;20028;-32
2021/10/18 01:52:05;;;;;;;3.33;1.33;;;;;;;26.12;35.55;97194.53;5077361;28;20745;-28
2021/10/18 01:54:31;;;;;;;2.45;1.58;;;;;;;26.13;35.68;97192.78;5083555;28;20455;-32
2021/10/18 01:56:56;;;;;;;2.08;1.48;;;;;;;26.13;35.58;97200.66;5077613;28;20255;-30
2021/10/18 01:59:21;;;;;;;2.03;1.40;;;;;;;26.12;35.65;97191.09;5081643;28;20081;-32
2021/10/18 02:01:47;;;;;;;1.60;1.42;;;;;;;26.11;35.52;97200.72;5076894;28;20031;-28
2021/10/18 02:04:12;;;;;;;2.42;1.38;;;;;;;26.10;35.68;97199.88;5063426;28;20709;-31
2021/10/18 02:06:38;;;;;;;1.45;1.35;;;;;;;26.12;35.63;97196.34;5083616;28;20084;-32
2021/10/18 02:09:03;;;;;;;2.85;1.70;;;;;;;26.10;35.68;97199.88;5085444;28;20078;-30
2021/10/18 02:11:28;;;;;;;2.97;1.75;;;;;;;26.12;35.70;97201.59;5083094;28;20121;-28
2021/10/18 02:13:54;;;;;;;1.88;1.45;;;;;;;26.10;35.60;97193.78;5087065;28;20036;-26
2021/10/18 02:16:19;;;;;;;1.13;1.00;;;;;;;26.12;35.60;97198.97;5086114;28;20050;-30
2021/10/18 02:18:45;;;;;;;1.98;1.40;;;;;;;26.10;35.64;97194.63;5082553;27;22688;-28
2021/10/18 02:21:10;;;;;;;2.13;1.23;;;;;;;26.10;35.67;97189.38;5085783;28;20032;-28
2021/10/18 02:23:35;;;;;;;1.77;1.42;;;;;;;26.10;35.68;97194.63;5084281;28;20040;-28
2021/10/18 02:26:01;;;;;;;1.80;1.60;;;;;;;26.09;35.77;97192.91;5068438;28;23238;-30
2021/10/18 02:28:26;;;;;;;4.25;2.20;;;;;;;26.09;35.47;97187.66;5085605;28;20023;-29
2021/10/18 02:30:52;;;;;;;2.08;1.65;;;;;;;26.07;35.58;97189.53;5084344;28;20028;-28
2021/10/18 02:33:17;;;;;;;3.53;1.80;;;;;;;26.09;35.49;97192.09;5064090;28;20057;-31
2021/10/18 02:35:43;;;;;;;3.50;1.67;;;;;;;26.08;35.64;97185.97;5083114;28;20331;-29
2021/10/18 02:38:08;;;;;;;2.22;1.58;;;;;;;26.09;35.52;97176.34;5074222;28;20027;-30
2021/10/18 02:40:33;;;;;;;1.45;1.35;;;;;;;26.09;35.39;97181.59;5078709;28;20823;-30
2021/10/18 02:42:59;;;;;;;2.17;1.30;;;;;;;26.09;35.54;97186.84;5079101;28;20024;-27
2021/10/18 02:45:24;;;;;;;1.77;1.38;;;;;;;26.08;35.71;97183.34;5078874;28;20020;-28
2021/10/18 02:47:49;;;;;;;2.38;1.48;;;;;;;26.07;35.50;97184.28;5080440;27;20405;-28
2021/10/18 02:50:15;;;;;;;3.03;1.48;;;;;;;26.07;35.76;97186.91;5085826;27;20023;-31
2021/10/18 02:52:40;;;;;;;1.70;1.38;;;;;;;26.08;35.67;97185.13;5066344;28;20032;-27
2021/10/18 02:55:06;;;;;;;1.50;1.40;;;;;;;26.09;35.67;97184.22;5086420;28;20024;-29
2021/10/18 02:57:31;;;;;;;2.47;1.73;;;;;;;26.08;35.98;97180.72;5081006;27;20413;-32
2021/10/18 02:59:57;;;;;;;1.83;1.42;;;;;;;26.08;35.67;97191.22;5081274;27;20082;-26
2021/10/18 03:02:22;;;;;;;1.60;1.40;;;;;;;26.05;35.58;97185.28;5083854;28;20043;-31
2021/10/18 03:04:48;;;;;;;2.30;1.50;;;;;;;26.07;35.64;97184.28;5090032;28;20028;-28
2021/10/18 03:07:13;;;;;;;1.42;1.33;;;;;;;26.09;35.55;97192.91;5068831;28;20039;-29
2021/10/18 03:09:38;;;;;;;2.10;1.35;;;;;;;26.08;35.66;97185.97;5084828;27;20036;-30
2021/10/18 03:12:04;;;;;;;1.70;1.50;;;;;;;26.08;35.54;97191.22;5077058;28;20063;-31
2021/10/18 03:14:29;;;;;;;1.90;1.55;;;;;;;26.08;35.60;97188.59;5082667;28;20019;-27
2021/10/18 03:16:55;;;;;;;1.50;1.25;;;;;;;26.07;35.57;97184.28;5083881;28;20111;-29
2021/10/18 03:19:20;;;;;;;2.95;1.55;;;;;;;26.08;35.68;97191.22;5078258;27;20128;-30
2021/10/18 03:21:46;;;;;;;1.65;1.33;;;;;;;26.08;35.44;97187.75;5082490;28;20058;-29
2021/10/18 03:24:11;;;;;;;2.33;1.48;;;;;;;26.07;35.64;97200.03;5075906;28;20034;-29
2021/10/18 03:26:36;;;;;;;2.25;1.58;;;;;;;26.08;35.59;97200.88;5071090;28;20027;-27
2021/10/18 03:29:02;;;;;;;2.63;1.30;;;;;;;26.07;35.53;97200.03;5056652;28;20580;-32
2021/10/18 03:31:27;;;;;;;1.88;1.50;;;;;;;26.08;35.57;97216.63;5083503;28;20107;-28
2021/10/18 03:33:53;;;;;;;2.00;1.40;;;;;;;26.08;35.57;97222.75;5078403;28;20031;-26
2021/10/18 03:36:18;;;;;;;2.08;1.23;;;;;;;26.07;35.57;97221.06;5072896;28;20049;-27
2021/10/18 03:38:43;;;;;;;1.25;1.10;;;;;;;26.07;35.55;97231.56;5068421;28;20028;-30
2021/10/18 03:41:09;;;;;;;1.40;1.23;;;;;;;26.07;35.52;97221.06;5074023;28;20027;-27
2021/10/18 03:43:34;;;;;;;1.75;1.30;;;;;;;26.08;35.62;97228.00;5070971;28;20028;-27
2021/10/18 03:46:00;;;;;;;1.85;1.40;;;;;;;26.07;35.66;97231.56;5070278;28;20082;-28
2021/10/18 03:48:25;;;;;;;1.63;1.52;;;;;;;26.06;35.65;97219.34;5086142;27;20568;-31
2021/10/18 03:50:51;;;;;;;2.03;1.50;;;;;;;26.07;35.56;97244.69;5078276;28;20024;-26
2021/10/18 03:53:16;;;;;;;1.55;1.30;;;;;;;26.06;35.51;97229.84;5100555;27;20124;-32
2021/10/18 03:55:41;;;;;;;1.40;1.20;;;;;;;26.06;35.61;97240.38;5080891;28;20049;-31
2021/10/18 03:58:07;;;;;;;1.95;1.38;;;;;;;26.07;35.57;97242.06;5082555;28;20028;-31
2021/10/18 04:00:32;;;;;;;1.35;1.23;;;;;;;26.06;35.60;97250.00;5085852;28;20729;-30
2021/10/18 04:02:58;;;;;;;1.40;1.30;;;;;;;26.03;35.60;97245.75;5082455;28;21555;-28
2021/10/18 04:05:24;;;;;;;1.90;1.38;;;;;;;26.05;35.48;97249.16;5083782;28;20054;-31
2021/10/18 04:07:50;;;;;;;1.63;1.23;;;;;;;26.06;35.50;97250.00;5084916;28;20513;-30
2021/10/18 04:10:17;;;;;;;2.20;1.50;;;;;;;26.06;35.57;97247.38;5084749;28;20039;-29
2021/10/18 04:12:43;;;;;;;1.60;1.33;;;;;;;26.05;35.62;97243.88;5066335;28;20112;-31
2021/10/18 04:15:08;;;;;;;1.77;1.30;;;;;;;26.04;35.52;97247.44;5073746;28;20024;-32
2021/10/18 04:17:34;;;;;;;2.08;1.38;;;;;;;26.04;35.66;97251.84;5082259;28;20032;-29
2021/10/18 04:19:59;;;;;;;1.30;1.20;;;;;;;26.04;35.48;97255.31;5064847;28;20023;-32
2021/10/18 04:22:25;;;;;;;3.00;1.20;;;;;;;26.03;35.56;97251.00;5082509;28;20304;-30
2021/10/18 04:24:50;;;;;;;1.42;1.33;;;;;;;26.03;35.60;97256.25;5063554;28;20039;-28
2021/10/18 04:27:16;;;;;;;1.70;1.33;;;;;;;26.03;35.53;97248.38;5082720;28;20031;-29
2021/10/18 04:29:41;;;;;;;1.55;1.25;;;;;;;26.03;35.50;97256.25;5082003;28;20568;-28
2021/10/18 04:32:06;;;;;;;1.52;1.40;;;;;;;26.04;35.59;97259.72;5083675;28;20127;-29
2021/10/18 04:34:32;;;;;;;2.00;1.30;;;;;;;26.03;35.76;97266.75;5076066;28;20674;-30
2021/10/18 04:36:57;;;;;;;1.40;1.30;;;;;;;26.04;35.60;97272.84;5071204;28;20042;-29
2021/10/18 04:39:23;;;;;;;2.75;1.50;;;;;;;26.03;35.47;97277.28;5077440;28;20112;-27
2021/10/18 04:41:48;;;;;;;1.40;1.25;;;;;;;26.02;35.51;97275.56;5058165;28;20062;-30
2021/10/18 04:44:13;;;;;;;1.70;1.33;;;;;;;26.02;35.66;97280.81;5075046;28;20039;-30
2021/10/18 04:46:39;;;;;;;1.23;1.02;;;;;;;26.01;35.56;97281.72;5077183;28;20104;-30
2021/10/18 04:49:04;;;;;;;2.25;1.17;;;;;;;26.02;35.66;97286.06;5080660;27;20024;-27
2021/10/18 04:51:30;;;;;;;1.95;1.05;;;;;;;26.01;35.52;97292.22;5077867;27;20425;-31
2021/10/18 04:53:55;;;;;;;2.28;1.40;;;;;;;26.02;35.59;97279.97;5077016;28;20162;-30
2021/10/18 04:56:20;;;;;;;1.98;1.20;;;;;;;26.01;35.63;97280.91;5076987;28;20019;-28
2021/10/18 04:58:46;;;;;;;1.70;1.15;;;;;;;26.01;35.60;97278.25;5082493;27;20035;-29
2021/10/18 05:01:11;;;;;;;1.25;1.05;;;;;;;25.94;35.56;97267.19;5082452;28;20035;-29
2021/10/18 05:03:37;;;;;;;2.22;1.20;;;;;;;26.02;35.60;97280.81;5068871;28;20035;-26
2021/10/18 05:06:02;;;;;;;1.20;1.10;;;;;;;26.00;35.57;97280.03;5075893;28;20036;-32
2021/10/18 05:08:28;;;;;;;1.40;1.30;;;;;;;26.01;35.55;97286.16;5079153;27;20046;-28
2021/10/18 05:10:53;;;;;;;1.73;1.40;;;;;;;26.00;35.49;97287.91;5079461;28;20039;-28
2021/10/18 05:13:19;;;;;;;3.78;1.20;;;;;;;26.00;35.55;97293.16;5084092;27;20089;-33
2021/10/18 05:15:46;;;;;;;1.70;1.27;;;;;;;26.00;35.61;97292.31;5077935;28;20065;-30
2021/10/18 05:18:11;;;;;;;1.08;1.00;;;;;;;25.99;35.53;97299.34;5078546;28;20028;-26
2021/10/18 05:20:37;;;;;;;1.42;1.30;;;;;;;26.00;35.58;97297.59;5080312;28;20081;-30
2021/10/18 05:23:03;;;;;;;1.33;1.15;;;;;;;25.98;35.58;97289.75;5081056;28;20107;-26
2021/10/18 05:25:28;;;;;;;1.17;1.08;;;;;;;25.98;35.62;97294.16;5071557;28;20043;-30
2021/10/18 05:27:54;;;;;;;1.60;1.30;;;;;;;25.98;35.46;97284.50;5080783;28;20097;-29
2021/10/18 05:30:24;;;;;;;1.30;1.20;;;;;;;26.00;35.56;97287.06;5060817;28;20034;-26
2021/10/18 05:32:53;;;;;;;1.85;1.27;;;;;;;25.99;35.52;97291.47;5078719;28;20042;-28
2021/10/18 05:35:18;;;;;;;1.27;1.10;;;;;;;25.92;35.55;97284.78;5077884;28;20111;-29
2021/10/18 05:37:44;;;;;;;1.42;1.30;;;;;;;26.00;35.60;97303.66;5061556;28;20028;-31
2021/10/18 05:40:10;;;;;;;2.58;1.23;;;;;;;25.98;35.62;97305.53;5083426;28;20031;-30
2021/10/18 05:42:35;;;;;;;1.92;1.38;;;;;;;25.98;35.40;97296.78;5079565;28;20038;-30
2021/10/18 05:45:01;;;;;;;1.35;1.20;;;;;;;25.97;35.48;97303.78;5079385;28;20097;-27
2021/10/18 05:47:26;;;;;;;1.30;1.00;;;;;;;25.97;35.74;97303.78;5082640;28;20038;-32
2021/10/18 05:49:52;;;;;;;1.60;1.50;;;;;;;25.98;35.44;97309.91;5081628;28;20040;-31
2021/10/18 05:52:18;;;;;;;2.15;1.15;;;;;;;25.98;35.60;97309.91;5079252;28;20077;-30
2021/10/18 05:54:43;;;;;;;1.63;1.50;;;;;;;25.99;35.39;97315.09;5082376;28;20030;-30
2021/10/18 05:57:09;;;;;;;1.45;1.30;;;;;;;25.97;35.56;97319.53;5079355;28;20020;-29
2021/10/18 05:59:34;;;;;;;1.67;1.20;;;;;;;25.97;35.44;97324.81;5065880;28;20542;-26
2021/10/18 06:02:00;;;;;;;1.30;1.15;;;;;;;25.98;35.52;97328.28;5061744;28;20125;-28
2021/10/18 06:04:25;;;;;;;2.55;1.33;;;;;;;25.96;35.51;97333.59;5082808;28;20029;-32
2021/10/18 06:06:51;;;;;;;1.58;1.35;;;;;;;25.97;35.43;97330.06;5049672;28;20015;-29
2021/10/18 06:09:16;;;;;;;2.40;1.25;;;;;;;25.97;35.47;97327.44;5075080;28;20031;-25
2021/10/18 06:11:41;;;;;;;1.25;1.15;;;;;;;25.98;35.49;97330.91;5065973;28;20448;-31
2021/10/18 06:14:07;;;;;;;1.65;1.50;;;;;;;25.96;35.59;97323.09;5083324;28;20656;-28
2021/10/18 06:16:32;;;;;;;1.88;1.48;;;;;;;25.96;35.58;97323.97;5082652;28;20020;-26
2021/10/18 06:18:58;;;;;;;1.40;1.30;;;;;;;25.96;35.58;97328.34;5080368;28;20032;-31
2021/10/18 06:21:24;;;;;;;1.45;1.10;;;;;;;25.96;35.44;97330.97;5078772;28;20027;-28
2021/10/18 06:23:49;;;;;;;1.67;1.33;;;;;;;25.96;35.45;97325.72;5060334;28;20024;-31
2021/10/18 06:26:17;;;;;;;1.95;1.25;;;;;;;25.95;35.46;97342.41;5086381;28;20556;-25
2021/10/18 06:28:42;;;;;;;1.88;1.40;;;;;;;25.92;35.54;97337.28;5076787;28;20596;-28
2021/10/18 06:31:08;;;;;;;1.70;1.60;;;;;;;25.94;35.54;97345.97;5074920;28;20301;-29
2021/10/18 06:33:34;;;;;;;1.95;1.70;;;;;;;25.95;35.52;97340.66;5077072;28;20552;-27
2021/10/18 06:35:59;;;;;;;2.53;2.03;;;;;;;25.95;35.62;97345.03;5074881;28;20045;-29
2021/10/18 06:38:24;;;;;;;2.08;1.85;;;;;;;25.94;35.52;97354.69;5070785;28;20464;-29
2021/10/18 06:40:50;;;;;;;7.55;2.47;;;;;;;25.94;35.50;97351.22;5072487;28;20592;-28
2021/10/18 06:43:16;;;;;;;9.05;4.60;;;;;;;25.93;35.11;97352.16;5074480;28;20119;-30
2021/10/18 06:45:41;;;;;;;7.72;3.75;;;;;;;25.93;35.15;97357.41;5073056;28;20494;-27
2021/10/18 06:48:08;;;;;;;13.52;5.43;;;;;;;25.91;35.04;97367.09;5073751;28;20048;-28
2021/10/18 06:50:34;;;;;;;11.52;7.18;;;;;;;25.89;34.46;97353.22;5059103;28;20059;-32
2021/10/18 06:53:00;;;;;;;8.13;5.43;;;;;;;25.87;34.16;97362.91;5074568;27;20545;-29
2021/10/18 06:55:27;;;;;;;11.32;6.50;;;;;;;25.84;33.99;97363.91;5035533;28;20066;-33
2021/10/18 06:57:54;;;;;;;16.90;6.53;;;;;;;25.82;33.83;97369.22;5057287;28;20029;-29
2021/10/18 07:00:19;;;;;;;11.90;6.57;;;;;;;25.78;33.71;97372.88;5056838;28;20550;-31
2021/10/18 07:02:44;;;;;;;9.10;6.03;;;;;;;25.77;33.65;97378.19;5054290;28;20047;-29
2021/10/18 07:05:10;;;;;;;8.93;5.68;;;;;;;25.74;33.52;97375.75;5063725;28;20028;-26
2021/10/18 07:07:38;;;;;;;11.20;6.45;;;;;;;25.72;33.32;97377.56;5052040;28;20028;-32
2021/10/18 07:10:05;;;;;;;10.32;6.05;;;;;;;25.69;33.41;97386.41;5055543;28;20034;-28
2021/10/18 07:12:31;;;;;;;10.52;6.28;;;;;;;25.67;33.51;97385.66;5052154;28;20028;-28
2021/10/18 07:14:57;;;;;;;10.80;6.50;;;;;;;25.65;33.62;97383.09;5057022;28;20662;-29
2021/10/18 07:17:23;;;;;;;18.23;6.82;;;;;;;25.63;33.25;97389.31;5055931;28;20028;-28
2021/10/18 07:19:49;;;;;;;8.30;6.20;;;;;;;25.61;33.48;97376.25;5054891;28;20555;-29
2021/10/18 07:22:20;;;;;;;13.48;6.88;;;;;;;25.59;33.34;97382.50;5053556;28;20115;-27
2021/10/18 07:24:45;;;;;;;11.55;6.63;;;;;;;25.57;33.39;97388.69;5053588;28;20063;-32
2021/10/18 07:27:11;;;;;;;11.10;6.28;;;;;;;25.54;33.33;97386.13;5054424;28;20046;-27
2021/10/18 07:29:37;;;;;;;10.00;6.20;;;;;;;25.53;33.48;97384.44;5035907;28;20734;-27
2021/10/18 07:32:03;;;;;;;11.98;4.18;;;;;;;25.53;34.00;97389.69;5055473;28;20028;-31
2021/10/18 07:34:28;;;;;;;7.43;3.60;;;;;;;25.54;34.37;97396.63;5055612;28;20028;-29
2021/10/18 07:36:54;;;;;;;6.75;3.38;;;;;;;25.54;34.63;97399.25;5049740;28;20036;-28
2021/10/18 07:39:21;;;;;;;4.72;3.05;;;;;;;25.56;34.84;97402.69;5056320;28;20314;-29
2021/10/18 07:41:50;;;;;;;6.15;2.90;;;;;;;25.58;34.93;97402.63;5055619;28;20103;-32
2021/10/18 07:44:16;;;;;;;7.25;3.25;;;;;;;25.60;35.09;97405.19;5054006;28;20028;-32
2021/10/18 07:46:41;;;;;;;8.65;3.15;;;;;;;25.62;35.11;97403.38;5052238;28;20055;-30
2021/10/18 07:49:07;;;;;;;9.38;3.20;;;;;;;25.62;35.06;97406.81;5054279;28;20439;-30
2021/10/18 07:51:32;;;;;;;5.15;2.80;;;;;;;25.64;35.16;97415.50;5064719;28;20027;-29
2021/10/18 07:53:58;;;;;;;5.53;2.60;;;;;;;25.67;35.19;97420.59;5056649;28;20142;-31
2021/10/18 07:56:23;;;;;;;4.72;2.65;;;;;;;25.67;35.15;97412.72;5045710;28;20421;-30
2021/10/18 07:58:48;;;;;;;6.70;2.90;;;;;;;25.68;35.29;97413.59;5064498;28;20040;-30
2021/10/18 08:01:14;;;;;;;5.60;2.60;;;;;;;25.70;35.38;97419.63;5062047;28;20044;-32
2021/10/18 08:03:39;;;;;;;5.70;2.88;;;;;;;25.73;35.39;97423.91;5063672;28;20035;-30
2021/10/18 08:06:05;;;;;;;6.70;3.03;;;;;;;25.73;35.32;97421.28;5063343;28;20955;-28
2021/10/18 08:08:32;;;;;;;17.25;12.55;;;;;;;25.71;32.60;97418.72;5061471;28;20467;-31
2021/10/18 08:10:58;;;;;;;16.98;14.35;;;;;;;25.59;30.09;97422.69;5043015;28;20036;-30
2021/10/18 08:13:23;;;;;;;17.30;13.82;;;;;;;25.39;28.83;97419.13;5059568;28;20039;-29
2021/10/18 08:15:49;;;;;;;17.25;12.90;;;;;;;25.17;29.09;97412.13;5059071;28;20016;-28
2021/10/18 08:18:14;;;;;;;16.42;11.48;;;;;;;25.00;29.71;97418.06;5058502;28;20027;-31
2021/10/18 08:20:41;;;;;;;11.00;9.13;;;;;;;24.88;30.33;97418.56;5063235;28;20506;-32
2021/10/18 08:23:07;;;;;;;13.05;8.68;;;;;;;24.82;30.79;97413.53;5046169;28;20505;-32
2021/10/18 08:25:32;;;;;;;9.50;7.43;;;;;;;24.78;31.33;97416.25;5063775;28;20397;-32
2021/10/18 08:27:58;;;;;;;9.05;6.45;;;;;;;24.77;31.42;97414.56;5058798;28;20478;-29
2021/10/18 08:30:23;;;;;;;8.40;6.40;;;;;;;24.77;31.83;97417.19;5060093;28;20078;-32
2021/10/18 08:32:48;;;;;;;7.22;5.35;;;;;;;24.80;32.05;97421.44;5058338;28;20094;-30
2021/10/18 08:35:14;;;;;;;9.98;5.88;;;;;;;24.78;32.20;97411.03;5052100;28;20028;-32
2021/10/18 08:40:34;;;;;;;9.77;4.50;;;;;;;24.88;32.65;97424.66;5054560;28;20689;-29
2021/10/18 08:43:08;;;;;;;10.20;4.57;;;;;;;24.89;32.80;97417.63;5041939;28;20055;-32
2021/10/18 08:45:34;;;;;;;17.02;4.50;;;;;;;24.93;32.74;97427.09;5058036;28;20040;-32
2021/10/18 08:47:59;;;;;;;7.80;4.30;;;;;;;24.97;33.00;97430.47;5048855;28;20019;-32
2021/10/18 08:50:25;;;;;;;7.47;4.70;;;;;;;24.99;33.06;97431.22;5061516;28;20035;-34
2021/10/18 08:52:50;;;;;;;7.82;4.20;;;;;;;25.00;33.10;97433.81;5060525;28;20027;-29
2021/10/18 08:55:16;;;;;;;9.95;4.25;;;;;;;25.04;33.23;97429.28;5060808;28;20017;-31
2021/10/18 08:57:41;;;;;;;8.57;4.00;;;;;;;25.04;33.29;97427.53;5057344;28;20035;-32
2021/10/18 09:00:07;;;;;;;6.00;3.80;;;;;;;25.10;33.30;97438.69;5060731;28;20032;-29
2021/10/18 09:02:37;;;;;;;7.53;4.15;;;;;;;25.12;33.35;97440.31;5061967;28;20024;-32
2021/10/18 09:05:07;;;;;;;7.00;3.90;;;;;;;25.14;33.20;97445.50;5062222;28;20025;-31
2021/10/18 09:07:36;;;;;;;7.80;3.70;;;;;;;25.17;33.54;97440.97;5065616;28;20059;-31
2021/10/18 09:10:09;;;;;;;7.45;4.25;;;;;;;25.19;33.48;97448.78;5062358;28;20034;-34
2021/10/18 09:12:39;;;;;;;6.78;3.97;;;;;;;25.22;33.44;97446.06;5057222;28;20036;-27
2021/10/18 09:15:24;;;;;;;6.25;4.03;;;;;;;25.23;33.41;97445.13;5064293;28;20039;-35
2021/10/18 09:17:59;;;;;;;9.27;3.90;;;;;;;25.26;33.35;97441.53;5063815;28;20036;-33
2021/10/18 09:20:28;;;;;;;7.88;4.10;;;;;;;25.26;33.58;97437.16;5062113;28;20036;-31
2021/10/18 09:22:55;;;;;;;7.88;3.80;;;;;;;25.28;33.49;97437.94;5059666;28;20024;-27
2021/10/18 09:25:40;;;;;;;7.00;3.90;;;;;;;25.30;33.52;97440.50;5054312;28;20020;-34
2021/10/18 09:28:15;;;;;;;7.78;3.90;;;;;;;25.33;33.64;97442.13;5059214;28;20088;-32
2021/10/18 09:30:42;;;;;;;5.10;3.60;;;;;;;25.35;33.80;97448.19;5048781;28;20675;-30
2021/10/18 09:33:27;;;;;;;5.82;3.72;;;;;;;25.36;33.70;97444.63;5064875;28;20393;-27
2021/10/18 09:35:53;;;;;;;7.35;3.60;;;;;;;25.36;33.69;97439.41;5064150;28;20024;-27
2021/10/18 09:38:21;;;;;;;6.07;3.45;;;;;;;25.38;33.81;97437.53;5040957;28;20028;-29
2021/10/18 09:40:46;;;;;;;5.43;3.45;;;;;;;25.39;33.79;97434.00;5054477;28;20139;-32
2021/10/18 09:45:38;;;;;;;6.93;3.53;;;;;;;25.41;33.83;97426.94;5061876;28;21089;-31
2021/10/18 10:52:50;;;;;;;4.70;2.70;;;;;;;25.74;34.88;97429.06;5060054;28;20039;-31
2021/10/18 10:55:31;;;;;;;5.45;2.67;;;;;;;25.85;34.73;97422.53;5061221;28;20043;-31
2021/10/18 10:57:58;;;;;;;3.25;2.30;;;;;;;25.95;34.79;97422.06;5059232;28;20062;-29
2021/10/18 11:00:33;;;;;;;5.70;2.92;;;;;;;26.07;34.52;97420.66;5037406;28;20118;-27
2021/10/18 11:03:35;;;;;;;4.35;2.40;;;;;;;26.21;34.36;97421.81;5058479;28;20134;-30
2021/10/18 11:06:04;;;;;;;8.85;6.95;;;;;;;26.31;31.25;97420.50;5048610;28;20039;-29
2021/10/18 11:08:36;;;;;;;5.35;4.07;;;;;;;26.43;32.10;97415.63;5055071;28;20029;-28
2021/10/18 11:11:18;;;;;;;4.00;3.00;;;;;;;26.51;33.05;97413.50;5058198;28;20063;-30
2021/10/18 11:13:44;;;;;;;5.35;2.80;;;;;;;26.60;33.17;97409.56;5054813;28;20019;-29
2021/10/18 11:16:09;;;;;;;4.63;2.70;;;;;;;26.68;33.24;97409.19;5063525;28;20570;-37
2021/10/18 11:18:35;;;;;;;5.63;3.25;;;;;;;26.76;32.97;97412.31;5040543;28;20032;-30
2021/10/18 11:21:14;;;;;;;9.75;7.75;;;;;;;26.83;30.06;97408.50;5063332;28;20499;-30
2021/10/18 11:23:52;;;;;;;13.10;7.35;;;;;;;26.85;29.50;97401.38;5048524;28;20036;-28
2021/10/18 11:26:18;;;;;;;8.57;5.88;;;;;;;26.91;30.01;97397.59;5055842;28;20024;-32
2021/10/18 11:28:43;;;;;;;5.18;4.43;;;;;;;26.91;30.70;97388.84;5059459;28;20844;-30
2021/10/18 11:31:10;;;;;;;8.70;4.40;;;;;;;26.96;30.95;97389.53;5059311;28;20032;-30
2021/10/18 11:33:36;;;;;;;5.40;3.72;;;;;;;26.98;31.41;97385.03;5070268;28;20036;-33
2021/10/18 11:36:14;;;;;;;4.57;3.75;;;;;;;27.03;31.43;97398.81;5061962;28;20016;-31
2021/10/18 11:38:40;;;;;;;9.85;4.50;;;;;;;27.05;31.21;97391.72;5062898;28;20028;-33
2021/10/18 11:41:05;;;;;;;4.53;3.70;;;;;;;27.09;31.43;97385.38;5060819;28;20027;-29
2021/10/18 11:43:34;;;;;;;4.78;3.35;;;;;;;27.12;31.26;97376.47;5061198;28;20474;-31
2021/10/18 11:45:59;;;;;;;3.50;2.90;;;;;;;27.16;31.62;97379.78;5060678;28;20824;-29
2021/10/18 11:48:26;;;;;;;5.05;3.10;;;;;;;27.21;31.54;97375.16;5057353;28;20136;-31
2021/10/18 11:50:53;;;;;;;5.68;3.25;;;;;;;27.25;31.43;97381.97;5066843;28;20027;-29
2021/10/18 11:53:19;;;;;;;3.33;2.70;;;;;;;27.29;31.47;97378.25;5063655;28;20082;-31
2021/10/18 11:55:46;;;;;;;4.85;3.15;;;;;;;27.34;31.38;97375.41;5059654;28;20328;-29
2021/10/18 11:58:16;;;;;;;4.38;3.00;;;;;;;27.36;31.44;97368.28;5065463;28;20052;-30
2021/10/18 12:00:41;;;;;;;3.80;3.00;;;;;;;27.37;31.35;97362.94;5063242;28;20059;-30
2021/10/18 12:03:25;;;;;;;3.90;3.08;;;;;;;27.36;31.42;97353.34;5047201;28;20103;-34
2021/10/18 12:05:52;;;;;;;5.63;3.30;;;;;;;27.37;31.45;97355.03;5061165;28;20426;-31
2021/10/18 12:08:18;;;;;;;9.35;3.97;;;;;;;27.35;31.38;97354.25;5061198;28;20028;-30
2021/10/18 12:10:45;;;;;;;9.60;5.85;;;;;;;27.31;31.47;97350.06;5064961;28;20106;-31
2021/10/18 12:13:21;;;;;;;11.02;6.57;;;;;;;27.28;31.75;97345.00;5063791;28;20032;-30
2021/10/18 12:15:46;;;;;;;14.27;7.95;;;;;;;27.25;31.90;97345.13;5063227;28;20453;-35
2021/10/18 12:18:12;;;;;;;22.40;9.07;;;;;;;27.21;31.98;97343.59;5066687;28;20024;-31
2021/10/18 12:20:45;;;;;;;19.95;8.85;;;;;;;27.17;32.38;97336.78;5058845;28;20059;-32
2021/10/18 12:23:30;;;;;;;22.85;9.65;;;;;;;27.11;32.49;97338.78;5065133;28;20031;-30
2021/10/18 12:26:03;;;;;;;23.80;9.82;;;;;;;27.07;32.66;97334.59;5062459;28;20037;-34
2021/10/18 12:28:46;;;;;;;17.90;8.63;;;;;;;27.04;32.85;97336.53;5063856;28;20535;-28
2021/10/18 12:31:43;;;;;;;17.20;8.57;;;;;;;26.98;33.05;97324.53;5061869;28;20039;-31
2021/10/18 12:34:10;;;;;;;16.15;8.00;;;;;;;26.94;33.18;97317.69;5061973;28;20024;-33
2021/10/18 12:37:08;;;;;;;19.80;8.57;;;;;;;26.90;33.23;97319.63;5054282;28;20135;-30
2021/10/18 12:39:35;;;;;;;18.63;8.35;;;;;;;26.84;33.25;97304.16;5062105;28;20401;-29